Terminal Aerodrome Forecast
Issued by NWS

Home | Current Version | Previous Version | Text Only | Print | Product List | Glossary On
Versions: 1 2 3 4 5 6 7 8 9 10 11 12 13 14 15 16 17 18 19 20
000
FTUS42 TJSJ 180217 AAA
TAFIST
TAF AMD
TIST 180217Z 1802/1824 11009KT P6SM VCTS FEW020CB
      TEMPO 1802/1804 11010G20KT 3SM TSRA BKN020CB
     FM181400 12015G22KT P6SM VCSH SCT015 BKN050
     FM182000 11012KT P6SM FEW020=

USA.gov is the U.S. government's official web portal to all federal, state and local government web resources and services.